sensor_id;sensor_type;location;lat;lon;timestamp;P1;durP1;ratioP1;P2;durP2;ratioP2
41255;SDS011;26989;45.524;10.938;2023-07-09T00:01:53;6.00;;;4.13;;
41255;SDS011;26989;45.524;10.938;2023-07-09T00:04:21;9.93;;;5.05;;
41255;SDS011;26989;45.524;10.938;2023-07-09T00:06:48;6.97;;;4.57;;
41255;SDS011;26989;45.524;10.938;2023-07-09T00:09:16;9.82;;;4.85;;
41255;SDS011;26989;45.524;10.938;2023-07-09T00:11:44;9.20;;;4.75;;
41255;SDS011;26989;45.524;10.938;2023-07-09T00:14:13;7.82;;;4.75;;
41255;SDS011;26989;45.524;10.938;2023-07-09T00:16:42;6.97;;;4.43;;
41255;SDS011;26989;45.524;10.938;2023-07-09T00:19:11;6.88;;;4.32;;
41255;SDS011;26989;45.524;10.938;2023-07-09T00:21:40;6.20;;;4.22;;
41255;SDS011;26989;45.524;10.938;2023-07-09T00:24:07;9.20;;;4.60;;
41255;SDS011;26989;45.524;10.938;2023-07-09T00:26:37;8.23;;;4.88;;
41255;SDS011;26989;45.524;10.938;2023-07-09T00:29:05;9.02;;;4.63;;
41255;SDS011;26989;45.524;10.938;2023-07-09T00:31:33;6.82;;;4.38;;
41255;SDS011;26989;45.524;10.938;2023-07-09T00:34:00;9.45;;;4.93;;
41255;SDS011;26989;45.524;10.938;2023-07-09T00:36:28;7.15;;;4.50;;
41255;SDS011;26989;45.524;10.938;2023-07-09T00:38:57;10.27;;;5.43;;
41255;SDS011;26989;45.524;10.938;2023-07-09T00:41:34;9.40;;;4.40;;
41255;SDS011;26989;45.524;10.938;2023-07-09T00:49:31;8.88;;;4.80;;
41255;SDS011;26989;45.524;10.938;2023-07-09T00:52:07;9.13;;;4.53;;
41255;SDS011;26989;45.524;10.938;2023-07-09T00:54:48;7.05;;;4.30;;
41255;SDS011;26989;45.524;10.938;2023-07-09T00:57:18;8.98;;;4.30;;
41255;SDS011;26989;45.524;10.938;2023-07-09T00:59:50;7.93;;;4.13;;
41255;SDS011;26989;45.524;10.938;2023-07-09T01:02:22;5.85;;;4.32;;
41255;SDS011;26989;45.524;10.938;2023-07-09T01:04:51;10.02;;;4.53;;
41255;SDS011;26989;45.524;10.938;2023-07-09T01:07:23;6.28;;;4.68;;
41255;SDS011;26989;45.524;10.938;2023-07-09T01:09:50;7.35;;;4.43;;
41255;SDS011;26989;45.524;10.938;2023-07-09T01:12:18;8.30;;;4.80;;
41255;SDS011;26989;45.524;10.938;2023-07-09T01:14:47;8.13;;;4.93;;
41255;SDS011;26989;45.524;10.938;2023-07-09T01:17:18;10.35;;;4.75;;
41255;SDS011;26989;45.524;10.938;2023-07-09T01:19:48;6.75;;;4.55;;
41255;SDS011;26989;45.524;10.938;2023-07-09T01:22:18;7.70;;;4.28;;
41255;SDS011;26989;45.524;10.938;2023-07-09T01:27:31;9.38;;;4.78;;
41255;SDS011;26989;45.524;10.938;2023-07-09T01:30:00;7.15;;;4.80;;
41255;SDS011;26989;45.524;10.938;2023-07-09T01:32:30;6.00;;;4.10;;
41255;SDS011;26989;45.524;10.938;2023-07-09T01:34:58;10.07;;;5.03;;
41255;SDS011;26989;45.524;10.938;2023-07-09T01:37:31;6.75;;;4.35;;
41255;SDS011;26989;45.524;10.938;2023-07-09T01:40:01;10.20;;;5.10;;
41255;SDS011;26989;45.524;10.938;2023-07-09T01:42:41;9.10;;;4.43;;
41255;SDS011;26989;45.524;10.938;2023-07-09T01:45:09;6.97;;;4.65;;
41255;SDS011;26989;45.524;10.938;2023-07-09T01:47:37;12.13;;;4.50;;
41255;SDS011;26989;45.524;10.938;2023-07-09T01:50:05;7.78;;;4.68;;
41255;SDS011;26989;45.524;10.938;2023-07-09T01:52:33;6.82;;;4.50;;
41255;SDS011;26989;45.524;10.938;2023-07-09T01:55:00;6.97;;;4.53;;
41255;SDS011;26989;45.524;10.938;2023-07-09T01:57:29;5.53;;;3.97;;
41255;SDS011;26989;45.524;10.938;2023-07-09T02:00:03;9.35;;;4.20;;
41255;SDS011;26989;45.524;10.938;2023-07-09T02:02:35;8.77;;;4.70;;
41255;SDS011;26989;45.524;10.938;2023-07-09T02:05:02;6.72;;;4.45;;
41255;SDS011;26989;45.524;10.938;2023-07-09T02:07:30;7.95;;;4.28;;
41255;SDS011;26989;45.524;10.938;2023-07-09T02:09:57;8.70;;;4.50;;
41255;SDS011;26989;45.524;10.938;2023-07-09T02:12:25;8.75;;;4.50;;
41255;SDS011;26989;45.524;10.938;2023-07-09T02:14:52;7.90;;;4.70;;
41255;SDS011;26989;45.524;10.938;2023-07-09T02:17:19;6.22;;;3.95;;
41255;SDS011;26989;45.524;10.938;2023-07-09T02:19:46;8.45;;;4.38;;
41255;SDS011;26989;45.524;10.938;2023-07-09T02:22:13;7.18;;;4.32;;
41255;SDS011;26989;45.524;10.938;2023-07-09T02:24:40;10.43;;;4.78;;
41255;SDS011;26989;45.524;10.938;2023-07-09T02:27:07;8.48;;;4.55;;
41255;SDS011;26989;45.524;10.938;2023-07-09T02:29:36;8.07;;;4.65;;
41255;SDS011;26989;45.524;10.938;2023-07-09T02:32:04;8.48;;;4.63;;
41255;SDS011;26989;45.524;10.938;2023-07-09T02:34:31;10.32;;;4.75;;
41255;SDS011;26989;45.524;10.938;2023-07-09T02:36:59;10.32;;;4.50;;
41255;SDS011;26989;45.524;10.938;2023-07-09T02:39:26;9.05;;;4.28;;
41255;SDS011;26989;45.524;10.938;2023-07-09T02:41:53;8.25;;;4.15;;
41255;SDS011;26989;45.524;10.938;2023-07-09T02:44:20;8.73;;;4.85;;
41255;SDS011;26989;45.524;10.938;2023-07-09T02:46:47;7.82;;;4.30;;
41255;SDS011;26989;45.524;10.938;2023-07-09T02:49:14;8.57;;;5.03;;
41255;SDS011;26989;45.524;10.938;2023-07-09T02:51:41;6.80;;;4.45;;
41255;SDS011;26989;45.524;10.938;2023-07-09T02:54:08;10.05;;;4.72;;
41255;SDS011;26989;45.524;10.938;2023-07-09T02:56:35;9.02;;;4.60;;
41255;SDS011;26989;45.524;10.938;2023-07-09T02:59:02;8.65;;;4.22;;
41255;SDS011;26989;45.524;10.938;2023-07-09T03:01:30;6.80;;;4.28;;
41255;SDS011;26989;45.524;10.938;2023-07-09T03:04:01;5.32;;;3.58;;
41255;SDS011;26989;45.524;10.938;2023-07-09T03:06:30;5.95;;;4.07;;
41255;SDS011;26989;45.524;10.938;2023-07-09T03:09:01;10.05;;;4.35;;
41255;SDS011;26989;45.524;10.938;2023-07-09T03:11:29;9.25;;;4.38;;
41255;SDS011;26989;45.524;10.938;2023-07-09T03:13:58;6.22;;;3.72;;
41255;SDS011;26989;45.524;10.938;2023-07-09T03:16:26;8.77;;;4.30;;
41255;SDS011;26989;45.524;10.938;2023-07-09T03:18:55;9.43;;;4.63;;
41255;SDS011;26989;45.524;10.938;2023-07-09T03:21:25;6.70;;;3.95;;
41255;SDS011;26989;45.524;10.938;2023-07-09T03:23:54;10.00;;;4.68;;
41255;SDS011;26989;45.524;10.938;2023-07-09T03:26:21;9.07;;;4.50;;
41255;SDS011;26989;45.524;10.938;2023-07-09T03:28:49;10.40;;;4.40;;
41255;SDS011;26989;45.524;10.938;2023-07-09T03:31:15;8.20;;;5.10;;
41255;SDS011;26989;45.524;10.938;2023-07-09T03:33:42;7.18;;;4.63;;
41255;SDS011;26989;45.524;10.938;2023-07-09T03:36:09;6.85;;;4.20;;
41255;SDS011;26989;45.524;10.938;2023-07-09T03:38:36;9.05;;;4.28;;
41255;SDS011;26989;45.524;10.938;2023-07-09T03:41:03;7.05;;;3.75;;
41255;SDS011;26989;45.524;10.938;2023-07-09T03:43:31;8.48;;;4.22;;
41255;SDS011;26989;45.524;10.938;2023-07-09T03:45:58;10.65;;;4.20;;
41255;SDS011;26989;45.524;10.938;2023-07-09T03:48:26;6.78;;;4.18;;
41255;SDS011;26989;45.524;10.938;2023-07-09T03:50:54;8.00;;;4.53;;
41255;SDS011;26989;45.524;10.938;2023-07-09T03:53:21;6.35;;;4.38;;
41255;SDS011;26989;45.524;10.938;2023-07-09T03:55:51;7.70;;;3.90;;
41255;SDS011;26989;45.524;10.938;2023-07-09T04:00:47;6.63;;;4.35;;
41255;SDS011;26989;45.524;10.938;2023-07-09T04:03:14;6.28;;;4.10;;
41255;SDS011;26989;45.524;10.938;2023-07-09T04:05:41;8.60;;;4.50;;
41255;SDS011;26989;45.524;10.938;2023-07-09T04:08:08;8.88;;;4.82;;
41255;SDS011;26989;45.524;10.938;2023-07-09T04:10:35;7.57;;;4.85;;
41255;SDS011;26989;45.524;10.938;2023-07-09T04:13:02;7.55;;;5.03;;
41255;SDS011;26989;45.524;10.938;2023-07-09T04:15:29;21.23;;;5.72;;
41255;SDS011;26989;45.524;10.938;2023-07-09T04:17:56;6.55;;;4.70;;
41255;SDS011;26989;45.524;10.938;2023-07-09T04:20:23;6.90;;;4.60;;
41255;SDS011;26989;45.524;10.938;2023-07-09T04:22:50;9.15;;;4.90;;
41255;SDS011;26989;45.524;10.938;2023-07-09T04:25:17;7.22;;;4.63;;
41255;SDS011;26989;45.524;10.938;2023-07-09T04:27:44;7.70;;;4.82;;
41255;SDS011;26989;45.524;10.938;2023-07-09T04:30:12;6.38;;;4.97;;
41255;SDS011;26989;45.524;10.938;2023-07-09T04:32:44;10.23;;;4.78;;
41255;SDS011;26989;45.524;10.938;2023-07-09T04:35:12;7.78;;;4.28;;
41255;SDS011;26989;45.524;10.938;2023-07-09T04:37:41;7.15;;;4.68;;
41255;SDS011;26989;45.524;10.938;2023-07-09T04:40:09;9.57;;;5.05;;
41255;SDS011;26989;45.524;10.938;2023-07-09T04:42:38;10.10;;;5.45;;
41255;SDS011;26989;45.524;10.938;2023-07-09T04:45:06;7.20;;;4.43;;
41255;SDS011;26989;45.524;10.938;2023-07-09T04:47:35;9.35;;;4.70;;
41255;SDS011;26989;45.524;10.938;2023-07-09T04:50:03;9.45;;;4.90;;
41255;SDS011;26989;45.524;10.938;2023-07-09T04:52:31;8.57;;;4.47;;
41255;SDS011;26989;45.524;10.938;2023-07-09T04:54:58;7.65;;;4.65;;
41255;SDS011;26989;45.524;10.938;2023-07-09T04:57:26;8.73;;;5.03;;
41255;SDS011;26989;45.524;10.938;2023-07-09T04:59:54;7.25;;;4.90;;
41255;SDS011;26989;45.524;10.938;2023-07-09T05:02:21;7.72;;;4.63;;
41255;SDS011;26989;45.524;10.938;2023-07-09T05:04:48;6.97;;;4.13;;
41255;SDS011;26989;45.524;10.938;2023-07-09T05:07:15;6.82;;;4.70;;
41255;SDS011;26989;45.524;10.938;2023-07-09T05:09:42;6.55;;;4.43;;
41255;SDS011;26989;45.524;10.938;2023-07-09T05:12:10;9.25;;;4.30;;
41255;SDS011;26989;45.524;10.938;2023-07-09T05:14:44;8.70;;;4.53;;
41255;SDS011;26989;45.524;10.938;2023-07-09T05:17:11;8.30;;;4.75;;
41255;SDS011;26989;45.524;10.938;2023-07-09T05:19:38;7.60;;;4.68;;
41255;SDS011;26989;45.524;10.938;2023-07-09T05:22:05;7.28;;;4.57;;
41255;SDS011;26989;45.524;10.938;2023-07-09T05:24:33;8.15;;;4.25;;
41255;SDS011;26989;45.524;10.938;2023-07-09T05:27:00;7.40;;;4.70;;
41255;SDS011;26989;45.524;10.938;2023-07-09T05:29:26;7.05;;;4.53;;
41255;SDS011;26989;45.524;10.938;2023-07-09T05:31:53;5.65;;;3.85;;
41255;SDS011;26989;45.524;10.938;2023-07-09T05:34:20;7.82;;;4.30;;
41255;SDS011;26989;45.524;10.938;2023-07-09T05:36:47;8.52;;;4.55;;
41255;SDS011;26989;45.524;10.938;2023-07-09T05:39:14;11.30;;;4.40;;
41255;SDS011;26989;45.524;10.938;2023-07-09T05:41:42;5.82;;;3.97;;
41255;SDS011;26989;45.524;10.938;2023-07-09T05:44:10;6.90;;;4.22;;
41255;SDS011;26989;45.524;10.938;2023-07-09T05:46:37;7.20;;;4.35;;
41255;SDS011;26989;45.524;10.938;2023-07-09T05:49:05;7.18;;;4.63;;
41255;SDS011;26989;45.524;10.938;2023-07-09T05:51:32;7.53;;;4.35;;
41255;SDS011;26989;45.524;10.938;2023-07-09T05:53:59;11.30;;;4.57;;
41255;SDS011;26989;45.524;10.938;2023-07-09T05:56:27;8.30;;;4.72;;
41255;SDS011;26989;45.524;10.938;2023-07-09T05:58:55;8.30;;;4.80;;
41255;SDS011;26989;45.524;10.938;2023-07-09T06:01:23;6.35;;;4.03;;
41255;SDS011;26989;45.524;10.938;2023-07-09T06:03:50;5.07;;;3.80;;
41255;SDS011;26989;45.524;10.938;2023-07-09T06:06:17;7.45;;;4.43;;
41255;SDS011;26989;45.524;10.938;2023-07-09T06:08:44;7.10;;;4.18;;
41255;SDS011;26989;45.524;10.938;2023-07-09T06:11:13;7.30;;;4.60;;
41255;SDS011;26989;45.524;10.938;2023-07-09T06:13:40;7.43;;;4.30;;
41255;SDS011;26989;45.524;10.938;2023-07-09T06:16:07;6.03;;;4.25;;
41255;SDS011;26989;45.524;10.938;2023-07-09T06:18:34;4.90;;;3.63;;
41255;SDS011;26989;45.524;10.938;2023-07-09T06:21:02;11.73;;;3.83;;
41255;SDS011;26989;45.524;10.938;2023-07-09T06:23:29;6.30;;;3.63;;
41255;SDS011;26989;45.524;10.938;2023-07-09T06:25:58;8.65;;;4.28;;
41255;SDS011;26989;45.524;10.938;2023-07-09T06:28:27;8.73;;;3.80;;
41255;SDS011;26989;45.524;10.938;2023-07-09T06:30:56;6.28;;;3.60;;
41255;SDS011;26989;45.524;10.938;2023-07-09T06:33:23;8.77;;;4.57;;
41255;SDS011;26989;45.524;10.938;2023-07-09T06:35:53;4.90;;;3.50;;
41255;SDS011;26989;45.524;10.938;2023-07-09T06:38:22;11.43;;;4.95;;
41255;SDS011;26989;45.524;10.938;2023-07-09T06:40:49;7.35;;;4.07;;
41255;SDS011;26989;45.524;10.938;2023-07-09T06:43:16;7.40;;;3.17;;
41255;SDS011;26989;45.524;10.938;2023-07-09T06:45:57;6.72;;;3.30;;
41255;SDS011;26989;45.524;10.938;2023-07-09T06:48:27;6.57;;;3.75;;
41255;SDS011;26989;45.524;10.938;2023-07-09T06:50:56;7.75;;;3.53;;
41255;SDS011;26989;45.524;10.938;2023-07-09T06:53:24;5.50;;;3.65;;
41255;SDS011;26989;45.524;10.938;2023-07-09T06:55:52;8.20;;;3.45;;
41255;SDS011;26989;45.524;10.938;2023-07-09T06:58:22;9.30;;;3.75;;
41255;SDS011;26989;45.524;10.938;2023-07-09T07:00:52;7.68;;;3.65;;
41255;SDS011;26989;45.524;10.938;2023-07-09T07:03:19;4.43;;;3.15;;
41255;SDS011;26989;45.524;10.938;2023-07-09T07:05:47;8.88;;;3.45;;
41255;SDS011;26989;45.524;10.938;2023-07-09T07:08:17;4.70;;;3.22;;
41255;SDS011;26989;45.524;10.938;2023-07-09T07:10:45;10.50;;;3.85;;
41255;SDS011;26989;45.524;10.938;2023-07-09T07:13:14;6.07;;;3.80;;
41255;SDS011;26989;45.524;10.938;2023-07-09T07:15:41;7.28;;;4.30;;
41255;SDS011;26989;45.524;10.938;2023-07-09T07:18:11;9.38;;;4.20;;
41255;SDS011;26989;45.524;10.938;2023-07-09T07:20:37;6.90;;;4.28;;
41255;SDS011;26989;45.524;10.938;2023-07-09T07:23:04;7.03;;;4.07;;
41255;SDS011;26989;45.524;10.938;2023-07-09T07:25:31;6.13;;;4.15;;
41255;SDS011;26989;45.524;10.938;2023-07-09T07:27:59;7.25;;;4.38;;
41255;SDS011;26989;45.524;10.938;2023-07-09T07:30:25;13.57;;;4.63;;
41255;SDS011;26989;45.524;10.938;2023-07-09T07:32:52;9.57;;;4.65;;
41255;SDS011;26989;45.524;10.938;2023-07-09T07:35:19;8.45;;;4.68;;
41255;SDS011;26989;45.524;10.938;2023-07-09T07:37:47;8.27;;;4.93;;
41255;SDS011;26989;45.524;10.938;2023-07-09T07:40:14;8.43;;;5.25;;
41255;SDS011;26989;45.524;10.938;2023-07-09T07:42:41;7.97;;;4.82;;
41255;SDS011;26989;45.524;10.938;2023-07-09T07:45:08;7.80;;;4.68;;
41255;SDS011;26989;45.524;10.938;2023-07-09T07:47:35;8.35;;;5.28;;
41255;SDS011;26989;45.524;10.938;2023-07-09T07:50:03;8.00;;;4.68;;
41255;SDS011;26989;45.524;10.938;2023-07-09T07:52:32;9.07;;;4.80;;
41255;SDS011;26989;45.524;10.938;2023-07-09T07:54:59;10.75;;;4.75;;
41255;SDS011;26989;45.524;10.938;2023-07-09T07:57:29;7.63;;;4.82;;
41255;SDS011;26989;45.524;10.938;2023-07-09T07:59:55;10.02;;;4.38;;
41255;SDS011;26989;45.524;10.938;2023-07-09T08:02:22;10.70;;;4.53;;
41255;SDS011;26989;45.524;10.938;2023-07-09T08:04:50;10.10;;;5.03;;
41255;SDS011;26989;45.524;10.938;2023-07-09T08:07:18;6.07;;;4.50;;
41255;SDS011;26989;45.524;10.938;2023-07-09T08:09:45;8.77;;;4.85;;
41255;SDS011;26989;45.524;10.938;2023-07-09T08:12:13;8.27;;;4.45;;
41255;SDS011;26989;45.524;10.938;2023-07-09T08:14:42;9.57;;;4.78;;
41255;SDS011;26989;45.524;10.938;2023-07-09T08:17:11;7.03;;;4.88;;
41255;SDS011;26989;45.524;10.938;2023-07-09T08:19:51;9.25;;;4.75;;
41255;SDS011;26989;45.524;10.938;2023-07-09T08:22:20;9.75;;;4.65;;
41255;SDS011;26989;45.524;10.938;2023-07-09T08:24:50;7.82;;;4.65;;
41255;SDS011;26989;45.524;10.938;2023-07-09T08:27:18;7.93;;;4.78;;
41255;SDS011;26989;45.524;10.938;2023-07-09T08:29:45;8.23;;;4.63;;
41255;SDS011;26989;45.524;10.938;2023-07-09T08:32:13;8.48;;;4.57;;
41255;SDS011;26989;45.524;10.938;2023-07-09T08:34:41;7.03;;;4.53;;
41255;SDS011;26989;45.524;10.938;2023-07-09T08:37:28;5.97;;;3.90;;
41255;SDS011;26989;45.524;10.938;2023-07-09T08:39:55;8.25;;;4.90;;
41255;SDS011;26989;45.524;10.938;2023-07-09T08:42:29;8.63;;;4.78;;
41255;SDS011;26989;45.524;10.938;2023-07-09T08:45:20;7.40;;;4.78;;
41255;SDS011;26989;45.524;10.938;2023-07-09T08:48:11;10.70;;;5.07;;
41255;SDS011;26989;45.524;10.938;2023-07-09T08:50:43;8.90;;;5.45;;
41255;SDS011;26989;45.524;10.938;2023-07-09T08:53:22;7.93;;;5.07;;
41255;SDS011;26989;45.524;10.938;2023-07-09T08:56:02;9.05;;;4.93;;
41255;SDS011;26989;45.524;10.938;2023-07-09T08:58:30;14.50;;;5.35;;
41255;SDS011;26989;45.524;10.938;2023-07-09T09:01:02;8.23;;;4.57;;
41255;SDS011;26989;45.524;10.938;2023-07-09T09:03:43;8.52;;;5.05;;
41255;SDS011;26989;45.524;10.938;2023-07-09T09:06:14;9.48;;;5.18;;
41255;SDS011;26989;45.524;10.938;2023-07-09T09:11:39;18.00;;;5.35;;
41255;SDS011;26989;45.524;10.938;2023-07-09T09:16:56;6.38;;;4.97;;
41255;SDS011;26989;45.524;10.938;2023-07-09T09:19:36;8.60;;;5.05;;
41255;SDS011;26989;45.524;10.938;2023-07-09T09:22:10;8.35;;;5.10;;
41255;SDS011;26989;45.524;10.938;2023-07-09T09:27:22;9.45;;;5.30;;
41255;SDS011;26989;45.524;10.938;2023-07-09T09:29:49;7.63;;;5.18;;
41255;SDS011;26989;45.524;10.938;2023-07-09T09:32:29;8.65;;;4.85;;
41255;SDS011;26989;45.524;10.938;2023-07-09T09:35:11;8.65;;;5.30;;
41255;SDS011;26989;45.524;10.938;2023-07-09T09:37:39;9.77;;;4.95;;
41255;SDS011;26989;45.524;10.938;2023-07-09T09:40:08;8.98;;;5.05;;
41255;SDS011;26989;45.524;10.938;2023-07-09T09:42:43;9.02;;;5.35;;
41255;SDS011;26989;45.524;10.938;2023-07-09T09:45:14;11.43;;;5.45;;
41255;SDS011;26989;45.524;10.938;2023-07-09T09:47:44;12.32;;;5.60;;
41255;SDS011;26989;45.524;10.938;2023-07-09T09:50:15;10.45;;;5.18;;
41255;SDS011;26989;45.524;10.938;2023-07-09T09:52:44;8.85;;;5.20;;
41255;SDS011;26989;45.524;10.938;2023-07-09T09:55:17;9.40;;;5.38;;
41255;SDS011;26989;45.524;10.938;2023-07-09T09:57:49;13.60;;;5.85;;
41255;SDS011;26989;45.524;10.938;2023-07-09T10:00:17;8.25;;;4.68;;
41255;SDS011;26989;45.524;10.938;2023-07-09T10:02:48;9.82;;;4.82;;
41255;SDS011;26989;45.524;10.938;2023-07-09T10:05:15;10.93;;;4.68;;
41255;SDS011;26989;45.524;10.938;2023-07-09T10:07:43;7.32;;;4.72;;
41255;SDS011;26989;45.524;10.938;2023-07-09T10:10:20;8.85;;;5.53;;
41255;SDS011;26989;45.524;10.938;2023-07-09T10:12:51;8.73;;;5.35;;
41255;SDS011;26989;45.524;10.938;2023-07-09T10:18:16;8.20;;;5.10;;
41255;SDS011;26989;45.524;10.938;2023-07-09T10:21:21;9.52;;;5.10;;
41255;SDS011;26989;45.524;10.938;2023-07-09T10:26:45;10.63;;;5.10;;
41255;SDS011;26989;45.524;10.938;2023-07-09T10:40:32;10.52;;;5.88;;
41255;SDS011;26989;45.524;10.938;2023-07-09T10:43:04;10.52;;;5.63;;
41255;SDS011;26989;45.524;10.938;2023-07-09T10:45:49;8.75;;;5.10;;
41255;SDS011;26989;45.524;10.938;2023-07-09T10:48:40;7.30;;;5.18;;
41255;SDS011;26989;45.524;10.938;2023-07-09T10:51:15;8.20;;;4.88;;
41255;SDS011;26989;45.524;10.938;2023-07-09T10:53:50;7.43;;;4.53;;
41255;SDS011;26989;45.524;10.938;2023-07-09T10:56:23;8.23;;;4.90;;
41255;SDS011;26989;45.524;10.938;2023-07-09T11:01:38;8.38;;;5.10;;
41255;SDS011;26989;45.524;10.938;2023-07-09T11:04:24;6.63;;;5.18;;
41255;SDS011;26989;45.524;10.938;2023-07-09T11:07:01;8.85;;;5.40;;
41255;SDS011;26989;45.524;10.938;2023-07-09T11:09:33;7.68;;;5.47;;
41255;SDS011;26989;45.524;10.938;2023-07-09T11:12:08;11.07;;;5.15;;
41255;SDS011;26989;45.524;10.938;2023-07-09T11:14:49;8.27;;;4.80;;
41255;SDS011;26989;45.524;10.938;2023-07-09T11:17:26;5.82;;;4.80;;
41255;SDS011;26989;45.524;10.938;2023-07-09T11:19:55;7.43;;;5.47;;
41255;SDS011;26989;45.524;10.938;2023-07-09T11:22:50;8.43;;;5.13;;
41255;SDS011;26989;45.524;10.938;2023-07-09T11:25:31;7.45;;;5.25;;
41255;SDS011;26989;45.524;10.938;2023-07-09T11:28:08;9.25;;;5.47;;
41255;SDS011;26989;45.524;10.938;2023-07-09T11:30:49;8.73;;;4.78;;
41255;SDS011;26989;45.524;10.938;2023-07-09T11:33:17;7.25;;;5.40;;
41255;SDS011;26989;45.524;10.938;2023-07-09T11:35:52;12.95;;;5.95;;
41255;SDS011;26989;45.524;10.938;2023-07-09T11:38:36;8.48;;;5.72;;
41255;SDS011;26989;45.524;10.938;2023-07-09T11:44:02;9.48;;;5.70;;
41255;SDS011;26989;45.524;10.938;2023-07-09T11:49:45;8.77;;;4.88;;
41255;SDS011;26989;45.524;10.938;2023-07-09T11:52:23;8.15;;;5.72;;
41255;SDS011;26989;45.524;10.938;2023-07-09T11:55:05;8.00;;;5.22;;
41255;SDS011;26989;45.524;10.938;2023-07-09T11:57:54;9.13;;;5.40;;
41255;SDS011;26989;45.524;10.938;2023-07-09T12:00:42;7.43;;;5.00;;
41255;SDS011;26989;45.524;10.938;2023-07-09T12:05:53;7.13;;;5.38;;
41255;SDS011;26989;45.524;10.938;2023-07-09T12:08:25;10.05;;;5.82;;
41255;SDS011;26989;45.524;10.938;2023-07-09T12:10:55;11.27;;;5.78;;
41255;SDS011;26989;45.524;10.938;2023-07-09T12:13:22;13.18;;;5.35;;
41255;SDS011;26989;45.524;10.938;2023-07-09T12:15:49;9.30;;;5.40;;
41255;SDS011;26989;45.524;10.938;2023-07-09T12:18:16;9.73;;;5.15;;
41255;SDS011;26989;45.524;10.938;2023-07-09T12:20:45;7.20;;;4.82;;
41255;SDS011;26989;45.524;10.938;2023-07-09T12:25:56;8.98;;;5.18;;
41255;SDS011;26989;45.524;10.938;2023-07-09T12:28:27;9.90;;;5.43;;
41255;SDS011;26989;45.524;10.938;2023-07-09T12:31:03;7.70;;;5.15;;
41255;SDS011;26989;45.524;10.938;2023-07-09T12:33:30;8.40;;;5.07;;
41255;SDS011;26989;45.524;10.938;2023-07-09T12:35:59;6.18;;;4.47;;
41255;SDS011;26989;45.524;10.938;2023-07-09T12:38:28;7.57;;;4.97;;
41255;SDS011;26989;45.524;10.938;2023-07-09T12:40:59;7.63;;;4.88;;
41255;SDS011;26989;45.524;10.938;2023-07-09T12:43:28;8.20;;;4.82;;
41255;SDS011;26989;45.524;10.938;2023-07-09T12:46:00;7.20;;;4.97;;
41255;SDS011;26989;45.524;10.938;2023-07-09T12:48:28;7.30;;;4.47;;
41255;SDS011;26989;45.524;10.938;2023-07-09T12:50:57;9.10;;;4.93;;
41255;SDS011;26989;45.524;10.938;2023-07-09T12:53:26;8.57;;;5.43;;
41255;SDS011;26989;45.524;10.938;2023-07-09T12:55:55;7.00;;;4.53;;
41255;SDS011;26989;45.524;10.938;2023-07-09T12:58:25;7.47;;;5.03;;
41255;SDS011;26989;45.524;10.938;2023-07-09T13:00:57;6.15;;;4.40;;
41255;SDS011;26989;45.524;10.938;2023-07-09T13:03:27;9.73;;;4.85;;
41255;SDS011;26989;45.524;10.938;2023-07-09T13:06:00;5.68;;;4.63;;
41255;SDS011;26989;45.524;10.938;2023-07-09T13:08:30;6.38;;;4.60;;
41255;SDS011;26989;45.524;10.938;2023-07-09T13:11:00;7.45;;;4.80;;
41255;SDS011;26989;45.524;10.938;2023-07-09T13:13:28;5.85;;;4.78;;
41255;SDS011;26989;45.524;10.938;2023-07-09T13:15:56;7.78;;;4.82;;
41255;SDS011;26989;45.524;10.938;2023-07-09T13:18:25;9.02;;;4.80;;
41255;SDS011;26989;45.524;10.938;2023-07-09T13:20:53;7.43;;;5.30;;
41255;SDS011;26989;45.524;10.938;2023-07-09T13:23:26;10.25;;;5.25;;
41255;SDS011;26989;45.524;10.938;2023-07-09T13:25:54;7.88;;;4.47;;
41255;SDS011;26989;45.524;10.938;2023-07-09T13:30:57;8.77;;;4.75;;
41255;SDS011;26989;45.524;10.938;2023-07-09T13:33:36;6.82;;;4.75;;
41255;SDS011;26989;45.524;10.938;2023-07-09T13:36:04;8.63;;;4.63;;
41255;SDS011;26989;45.524;10.938;2023-07-09T13:38:33;9.35;;;5.53;;
41255;SDS011;26989;45.524;10.938;2023-07-09T13:41:00;6.95;;;5.03;;
41255;SDS011;26989;45.524;10.938;2023-07-09T13:43:36;8.02;;;4.68;;
41255;SDS011;26989;45.524;10.938;2023-07-09T13:46:09;8.15;;;4.85;;
41255;SDS011;26989;45.524;10.938;2023-07-09T13:48:37;12.00;;;4.90;;
41255;SDS011;26989;45.524;10.938;2023-07-09T13:51:11;7.07;;;4.40;;
41255;SDS011;26989;45.524;10.938;2023-07-09T13:53:45;5.97;;;4.50;;
41255;SDS011;26989;45.524;10.938;2023-07-09T13:56:12;7.10;;;4.40;;
41255;SDS011;26989;45.524;10.938;2023-07-09T13:58:39;6.18;;;4.57;;
41255;SDS011;26989;45.524;10.938;2023-07-09T14:01:16;7.18;;;4.53;;
41255;SDS011;26989;45.524;10.938;2023-07-09T14:03:47;7.03;;;4.80;;
41255;SDS011;26989;45.524;10.938;2023-07-09T14:06:15;7.32;;;4.80;;
41255;SDS011;26989;45.524;10.938;2023-07-09T14:08:43;7.45;;;4.85;;
41255;SDS011;26989;45.524;10.938;2023-07-09T14:11:14;7.78;;;5.00;;
41255;SDS011;26989;45.524;10.938;2023-07-09T14:13:43;10.85;;;4.80;;
41255;SDS011;26989;45.524;10.938;2023-07-09T14:16:11;7.22;;;5.18;;
41255;SDS011;26989;45.524;10.938;2023-07-09T14:18:38;9.50;;;5.22;;
41255;SDS011;26989;45.524;10.938;2023-07-09T14:21:10;7.47;;;5.13;;
41255;SDS011;26989;45.524;10.938;2023-07-09T14:23:39;8.32;;;4.80;;
41255;SDS011;26989;45.524;10.938;2023-07-09T14:26:10;8.95;;;5.25;;
41255;SDS011;26989;45.524;10.938;2023-07-09T14:28:37;8.45;;;5.07;;
41255;SDS011;26989;45.524;10.938;2023-07-09T14:31:19;8.30;;;4.80;;
41255;SDS011;26989;45.524;10.938;2023-07-09T14:33:52;8.68;;;4.68;;
41255;SDS011;26989;45.524;10.938;2023-07-09T14:36:19;13.95;;;5.60;;
41255;SDS011;26989;45.524;10.938;2023-07-09T14:38:46;8.23;;;5.00;;
41255;SDS011;26989;45.524;10.938;2023-07-09T14:41:17;7.30;;;4.97;;
41255;SDS011;26989;45.524;10.938;2023-07-09T14:43:49;6.60;;;5.15;;
41255;SDS011;26989;45.524;10.938;2023-07-09T14:46:16;8.40;;;5.10;;
41255;SDS011;26989;45.524;10.938;2023-07-09T14:48:43;8.95;;;5.05;;
41255;SDS011;26989;45.524;10.938;2023-07-09T14:51:12;8.43;;;5.18;;
41255;SDS011;26989;45.524;10.938;2023-07-09T14:53:41;9.25;;;5.20;;
41255;SDS011;26989;45.524;10.938;2023-07-09T14:56:11;9.20;;;5.10;;
41255;SDS011;26989;45.524;10.938;2023-07-09T14:58:40;6.82;;;4.80;;
41255;SDS011;26989;45.524;10.938;2023-07-09T15:01:10;7.45;;;4.88;;
41255;SDS011;26989;45.524;10.938;2023-07-09T15:03:41;8.55;;;5.05;;
41255;SDS011;26989;45.524;10.938;2023-07-09T15:06:08;7.05;;;5.25;;
41255;SDS011;26989;45.524;10.938;2023-07-09T15:08:35;6.45;;;5.07;;
41255;SDS011;26989;45.524;10.938;2023-07-09T15:11:03;8.63;;;5.03;;
41255;SDS011;26989;45.524;10.938;2023-07-09T15:13:33;7.75;;;4.72;;
41255;SDS011;26989;45.524;10.938;2023-07-09T15:16:02;9.73;;;5.47;;
41255;SDS011;26989;45.524;10.938;2023-07-09T15:18:31;7.75;;;4.97;;
41255;SDS011;26989;45.524;10.938;2023-07-09T15:21:01;9.10;;;4.47;;
41255;SDS011;26989;45.524;10.938;2023-07-09T15:23:30;9.88;;;4.93;;
41255;SDS011;26989;45.524;10.938;2023-07-09T15:26:00;6.00;;;5.13;;
41255;SDS011;26989;45.524;10.938;2023-07-09T15:28:28;7.60;;;4.90;;
41255;SDS011;26989;45.524;10.938;2023-07-09T15:30:54;6.53;;;5.22;;
41255;SDS011;26989;45.524;10.938;2023-07-09T15:33:21;7.03;;;4.53;;
41255;SDS011;26989;45.524;10.938;2023-07-09T15:35:48;7.57;;;5.00;;
41255;SDS011;26989;45.524;10.938;2023-07-09T15:40:46;5.90;;;4.65;;
41255;SDS011;26989;45.524;10.938;2023-07-09T15:43:14;6.50;;;5.03;;
41255;SDS011;26989;45.524;10.938;2023-07-09T15:45:43;12.35;;;4.90;;